Time;durP1;ratioP1;P1;durP2;ratioP2;P2;SDS_P1;SDS_P2;PMS_P1;PMS_P2;Temp;Humidity;BMP_temperature;BMP_pressure;BME280_temperature;BME280_humidity;BME280_pressure;Samples;Min_cycle;Max_cycle;Signal;HPM_P1;HPM_P2
2022/01/24 00:01:37;;;;;;;8.20;6.00;;;3.90;99.90;;;;;;5073569;28;20974;-59
2022/01/24 00:04:05;;;;;;;7.60;6.80;;;3.80;99.90;;;;;;5073899;28;20809;-58
2022/01/24 00:06:33;;;;;;;8.03;7.23;;;3.70;99.90;;;;;;5073576;28;20819;-58
2022/01/24 00:09:00;;;;;;;8.30;6.50;;;3.80;99.90;;;;;;5073884;28;20444;-58
2022/01/24 00:11:39;;;;;;;8.27;7.37;;;3.70;99.90;;;;;;5073318;28;20827;-59
2022/01/24 00:14:45;;;;;;;8.17;6.83;;;3.70;99.90;;;;;;5073421;28;20502;-58
2022/01/24 00:17:09;;;;;;;7.87;7.07;;;3.50;99.90;;;;;;5073274;28;20976;-57
2022/01/24 00:27:53;;;;;;;9.20;7.20;;;3.40;99.90;;;;;;5073295;28;20409;-58
2022/01/24 00:30:20;;;;;;;9.00;7.90;;;3.30;99.90;;;;;;5073646;28;20854;-59
2022/01/24 00:32:47;;;;;;;9.13;6.87;;;3.20;99.90;;;;;;5073132;28;20540;-58
2022/01/24 00:35:15;;;;;;;8.47;7.60;;;3.20;99.90;;;;;;5072918;28;20488;-58
2022/01/24 00:37:42;;;;;;;8.90;7.27;;;3.10;99.90;;;;;;5072891;28;20444;-57
2022/01/24 00:40:10;;;;;;;9.90;8.03;;;3.10;99.90;;;;;;5073335;28;20542;-58
2022/01/24 00:42:49;;;;;;;10.17;7.90;;;3.30;99.90;;;;;;5073010;28;20851;-58
2022/01/24 00:45:27;;;;;;;10.50;8.50;;;3.20;99.90;;;;;;5073115;28;20439;-58
2022/01/24 00:48:25;;;;;;;10.63;7.47;;;3.30;99.90;;;;;;5073050;28;20428;-58
2022/01/24 00:53:51;;;;;;;10.50;8.10;;;3.40;99.90;;;;;;5072835;28;20491;-58
2022/01/24 00:56:19;;;;;;;12.33;9.10;;;3.40;99.90;;;;;;5072899;28;20880;-58
2022/01/24 00:58:46;;;;;;;11.90;8.30;;;;;;;;;;5072956;28;20532;-58
2022/01/24 01:01:15;;;;;;;9.90;7.23;;;3.30;99.90;;;;;;5072545;28;20480;-58
2022/01/24 01:03:42;;;;;;;11.20;8.27;;;3.20;99.90;;;;;;5072875;28;20463;-58
2022/01/24 01:06:10;;;;;;;11.40;7.90;;;3.10;99.90;;;;;;5072791;28;20451;-58
2022/01/24 01:19:37;;;;;;;9.80;7.53;;;3.00;99.90;;;;;;5072681;28;20482;-58
2022/01/24 01:22:04;;;;;;;11.03;8.40;;;3.00;99.90;;;;;;5072052;28;20502;-58
2022/01/24 01:24:37;;;;;;;11.13;9.40;;;3.00;99.90;;;;;;5072397;28;20457;-58
2022/01/24 01:27:09;;;;;;;13.90;9.70;;;2.90;99.90;;;;;;5072583;28;20440;-58
2022/01/24 01:29:47;;;;;;;12.50;10.20;;;2.90;99.90;;;;;;5072815;28;20429;-58
2022/01/24 01:32:24;;;;;;;13.73;9.97;;;2.90;99.90;;;;;;5072358;28;20496;-58
2022/01/24 01:54:27;;;;;;;11.50;9.80;;;2.80;99.90;;;;;;5072259;28;20793;-58
2022/01/24 01:56:54;;;;;;;11.63;9.60;;;2.70;99.90;;;;;;5072453;28;20429;-59
2022/01/24 01:59:21;;;;;;;14.50;8.60;;;2.70;99.90;;;;;;5072008;28;20782;-58
2022/01/24 02:01:48;;;;;;;11.83;9.70;;;2.60;99.90;;;;;;5072369;28;20490;-58
2022/01/24 02:04:17;;;;;;;12.10;9.47;;;2.60;99.90;;;;;;5072088;28;20949;-58
2022/01/24 02:06:44;;;;;;;10.40;8.17;;;2.70;99.90;;;;;;5072369;28;20451;-58
2022/01/24 02:09:13;;;;;;;11.70;8.53;;;2.70;99.90;;;;;;5075800;28;20476;-58
2022/01/24 02:11:40;;;;;;;10.40;9.20;;;2.80;99.90;;;;;;5075667;28;20468;-58
2022/01/24 02:14:11;;;;;;;10.07;9.03;;;2.60;99.90;;;;;;5076012;28;20444;-58
2022/01/24 02:16:45;;;;;;;9.17;8.13;;;2.60;99.90;;;;;;5076126;28;20519;-58
2022/01/24 02:19:24;;;;;;;10.80;9.23;;;2.70;99.90;;;;;;5076132;28;20460;-58
2022/01/24 02:22:17;;;;;;;10.90;8.60;;;2.60;99.90;;;;;;5075241;28;20545;-58
2022/01/24 02:24:54;;;;;;;10.80;8.87;;;2.60;99.90;;;;;;5075880;28;20526;-58
2022/01/24 02:27:24;;;;;;;12.10;9.20;;;2.50;99.90;;;;;;5075906;28;20831;-58
2022/01/24 02:30:05;;;;;;;13.20;7.50;;;2.30;99.90;;;;;;5075711;28;20441;-58
2022/01/24 02:32:32;;;;;;;9.47;7.33;;;2.30;99.90;;;;;;5075677;28;20467;-58
2022/01/24 02:35:00;;;;;;;13.70;8.30;;;2.30;99.90;;;;;;5075473;28;20520;-58
2022/01/24 02:37:28;;;;;;;12.47;7.93;;;2.20;99.90;;;;;;5075688;28;20449;-58
2022/01/24 02:39:59;;;;;;;10.13;8.37;;;2.30;99.90;;;;;;5075192;28;20969;-58
2022/01/24 02:48:25;;;;;;;13.03;9.37;;;2.40;99.90;;;;;;5033122;28;20418;-58
2022/01/24 02:51:15;;;;;;;9.50;8.60;;;2.40;99.90;;;;;;5032842;28;21070;-57
2022/01/24 02:53:44;;;;;;;9.80;8.50;;;2.20;99.90;;;;;;5061464;28;20804;-58
2022/01/24 02:56:11;;;;;;;10.27;8.90;;;2.30;99.90;;;;;;5074883;28;20443;-58
2022/01/24 02:58:38;;;;;;;11.60;8.60;;;2.20;99.90;;;;;;5074986;28;20444;-58
2022/01/24 03:01:07;;;;;;;9.70;7.43;;;2.20;99.90;;;;;;5075022;28;20780;-58
2022/01/24 03:03:35;;;;;;;10.53;8.20;;;2.20;99.90;;;;;;5075066;28;20484;-58
2022/01/24 03:06:02;;;;;;;10.67;8.07;;;2.20;99.90;;;;;;5075220;28;20452;-58
2022/01/24 03:08:29;;;;;;;10.97;9.10;;;2.30;99.90;;;;;;5075004;28;20445;-57
2022/01/24 03:10:59;;;;;;;9.67;8.30;;;2.30;99.90;;;;;;5074722;28;20560;-58
2022/01/24 03:13:33;;;;;;;11.60;8.70;;;2.30;99.90;;;;;;5075118;28;20617;-58
2022/01/24 03:16:03;;;;;;;13.20;9.90;;;2.20;99.90;;;;;;5074982;28;20482;-57
2022/01/24 03:18:30;;;;;;;9.30;8.33;;;2.20;99.90;;;;;;5074667;28;20455;-58
2022/01/24 03:20:58;;;;;;;12.43;9.70;;;2.20;99.90;;;;;;5073094;28;20488;-58
2022/01/24 03:23:26;;;;;;;12.07;8.33;;;2.20;99.90;;;;;;5074747;28;20484;-58
2022/01/24 03:25:53;;;;;;;11.47;8.57;;;2.20;99.90;;;;;;5074695;28;20448;-58
2022/01/24 03:28:22;;;;;;;10.27;7.87;;;2.20;99.90;;;;;;5074291;28;20455;-58
2022/01/24 03:30:50;;;;;;;9.33;8.43;;;2.20;99.90;;;;;;5074658;28;20471;-58
2022/01/24 03:33:17;;;;;;;12.10;9.07;;;2.20;99.90;;;;;;5074241;28;20491;-57
2022/01/24 03:35:44;;;;;;;9.63;8.73;;;2.20;99.90;;;;;;5074146;28;20509;-58
2022/01/24 03:38:13;;;;;;;10.50;7.73;;;2.30;99.90;;;;;;5074370;28;20429;-58
2022/01/24 03:40:41;;;;;;;11.53;7.93;;;2.20;99.90;;;;;;5074371;28;20444;-58
2022/01/24 03:43:08;;;;;;;9.83;7.97;;;2.20;99.90;;;;;;5073979;28;20483;-58
2022/01/24 03:45:39;;;;;;;8.30;7.40;;;2.10;99.90;;;;;;5074033;28;20456;-58
2022/01/24 03:48:10;;;;;;;10.70;7.93;;;2.10;99.90;;;;;;5074446;28;20918;-58
2022/01/24 03:50:41;;;;;;;10.53;7.33;;;2.20;99.90;;;;;;5074138;28;20566;-59
2022/01/24 03:53:08;;;;;;;13.97;8.97;;;2.20;99.90;;;;;;5074234;28;20451;-57
2022/01/24 03:55:36;;;;;;;9.80;7.80;;;2.10;99.90;;;;;;5074143;28;20439;-58
2022/01/24 03:58:03;;;;;;;10.63;8.60;;;2.00;99.90;;;;;;5073715;28;20891;-58
2022/01/24 04:00:30;;;;;;;10.27;8.37;;;1.90;99.90;;;;;;5073913;28;20815;-58
2022/01/24 04:02:59;;;;;;;9.27;8.23;;;2.00;99.90;;;;;;5074004;28;20480;-57
2022/01/24 04:05:26;;;;;;;12.50;8.60;;;1.90;99.90;;;;;;5073993;28;20444;-57
2022/01/24 04:07:53;;;;;;;9.73;8.70;;;1.90;99.90;;;;;;5073636;28;20930;-58
2022/01/24 04:10:22;;;;;;;10.37;8.03;;;1.90;99.90;;;;;;5073379;28;20457;-58
2022/01/24 04:12:52;;;;;;;10.20;7.63;;;1.90;99.90;;;;;;5073540;28;20455;-58
2022/01/24 04:15:44;;;;;;;10.70;8.03;;;1.90;99.90;;;;;;5073664;28;20448;-58
2022/01/24 04:23:41;;;;;;;10.10;9.07;;;1.90;99.90;;;;;;5073318;28;20468;-58
2022/01/24 04:26:08;;;;;;;15.03;8.93;;;1.90;99.90;;;;;;5073242;28;20456;-58
2022/01/24 04:28:35;;;;;;;10.23;9.17;;;1.90;99.90;;;;;;5073506;28;20452;-58
2022/01/24 04:31:03;;;;;;;10.40;9.00;;;2.00;99.90;;;;;;5072599;28;20472;-58
2022/01/24 04:33:31;;;;;;;9.57;7.80;;;1.90;99.90;;;;;;5073163;28;20444;-59
2022/01/24 04:35:59;;;;;;;12.90;8.67;;;1.80;99.90;;;;;;5073054;28;20915;-58
2022/01/24 04:38:28;;;;;;;10.93;7.90;;;1.80;99.90;;;;;;5073323;28;20444;-58
2022/01/24 04:40:56;;;;;;;10.67;9.10;;;1.80;99.90;;;;;;5073045;28;20587;-58
2022/01/24 04:43:33;;;;;;;9.97;8.53;;;1.70;99.90;;;;;;5072730;28;20918;-58
2022/01/24 04:46:11;;;;;;;11.17;8.97;;;1.60;99.90;;;;;;5073202;28;20440;-58
2022/01/24 04:51:35;;;;;;;11.30;9.40;;;1.70;99.90;;;;;;5073254;28;20542;-58
2022/01/24 04:57:04;;;;;;;15.10;8.93;;;1.60;99.90;;;;;;5072941;28;20889;-58
2022/01/24 04:59:31;;;;;;;10.17;9.03;;;1.50;99.90;;;;;;5072789;28;20441;-58
2022/01/24 05:01:58;;;;;;;11.47;9.70;;;1.50;99.90;;;;;;5072953;28;20571;-58
2022/01/24 05:04:26;;;;;;;10.80;9.03;;;1.60;99.90;;;;;;5072820;28;20455;-58
2022/01/24 05:06:54;;;;;;;10.93;9.40;;;1.60;99.90;;;;;;5073052;28;20549;-58
2022/01/24 05:09:21;;;;;;;12.30;9.17;;;1.60;99.90;;;;;;5072610;28;20432;-58
2022/01/24 05:11:53;;;;;;;10.00;7.53;;;1.60;99.90;;;;;;5072472;28;20475;-58
2022/01/24 05:25:20;;;;;;;19.97;14.40;;;1.70;99.90;;;;;;5072754;28;20404;-58
2022/01/24 05:27:48;;;;;;;19.40;15.23;;;1.60;99.90;;;;;;5072692;28;20444;-58
2022/01/24 05:30:16;;;;;;;20.37;14.90;;;1.60;99.90;;;;;;5072647;28;20452;-58
2022/01/24 05:32:44;;;;;;;16.37;12.70;;;1.60;99.90;;;;;;5072404;28;20468;-58
2022/01/24 05:35:13;;;;;;;13.57;11.00;;;1.50;99.90;;;;;;5072527;28;20448;-58
2022/01/24 05:37:41;;;;;;;11.43;10.10;;;1.60;99.90;;;;;;5072768;28;20421;-58
2022/01/24 05:40:09;;;;;;;11.93;10.20;;;1.50;99.90;;;;;;5072730;28;20440;-57
2022/01/24 05:42:37;;;;;;;14.57;10.97;;;1.50;99.90;;;;;;5073797;28;20608;-57
2022/01/24 05:45:06;;;;;;;12.70;10.53;;;1.60;99.90;;;;;;5076617;28;20535;-58
2022/01/24 05:47:33;;;;;;;10.37;9.30;;;1.60;99.90;;;;;;5076434;28;20543;-58
2022/01/24 05:50:00;;;;;;;11.13;8.67;;;1.50;99.90;;;;;;5076464;28;20444;-58
2022/01/24 05:52:29;;;;;;;13.77;9.83;;;1.60;99.90;;;;;;5076021;28;20472;-58
2022/01/24 05:54:56;;;;;;;11.07;9.67;;;1.60;99.90;;;;;;5076187;28;20447;-58
2022/01/24 05:57:23;;;;;;;11.27;9.17;;;1.60;99.90;;;;;;5076396;28;20472;-58
2022/01/24 05:59:51;;;;;;;10.23;8.97;;;1.60;99.90;;;;;;5076064;28;20431;-59
2022/01/24 06:02:18;;;;;;;11.73;10.37;;;1.60;99.90;;;;;;5076198;28;20468;-59
2022/01/24 06:04:46;;;;;;;11.13;9.60;;;1.60;99.90;;;;;;5076251;28;20476;-59
2022/01/24 06:07:13;;;;;;;12.83;10.43;;;1.50;99.90;;;;;;5076125;28;20455;-60
2022/01/24 06:09:42;;;;;;;9.23;8.33;;;1.60;99.90;;;;;;5075666;28;20535;-58
2022/01/24 06:12:10;;;;;;;12.20;9.83;;;1.60;99.90;;;;;;5075889;28;20468;-58
2022/01/24 06:14:38;;;;;;;11.10;9.03;;;1.70;99.90;;;;;;5075321;28;20544;-58
2022/01/24 06:17:05;;;;;;;12.23;9.47;;;1.80;99.90;;;;;;5075880;28;20532;-57
2022/01/24 06:19:32;;;;;;;13.73;11.20;;;1.70;99.90;;;;;;5075830;28;20945;-57
2022/01/24 06:21:59;;;;;;;11.53;8.87;;;1.70;99.90;;;;;;5075274;28;20507;-57
2022/01/24 06:24:26;;;;;;;10.67;9.40;;;1.60;99.90;;;;;;5075176;28;20480;-57
2022/01/24 06:26:55;;;;;;;12.03;9.87;;;1.60;99.90;;;;;;5075772;28;20831;-58
2022/01/24 06:29:22;;;;;;;10.53;9.43;;;1.60;99.90;;;;;;5075851;28;20448;-58
2022/01/24 06:31:49;;;;;;;13.33;10.97;;;1.60;99.90;;;;;;5075186;28;20839;-57
2022/01/24 06:34:16;;;;;;;10.43;9.37;;;1.70;99.90;;;;;;5075139;28;20939;-58
2022/01/24 06:36:44;;;;;;;10.87;8.87;;;1.70;99.90;;;;;;5075241;28;20451;-61
2022/01/24 06:39:12;;;;;;;11.67;10.20;;;1.80;99.90;;;;;;5075630;28;20947;-58
2022/01/24 06:41:41;;;;;;;10.33;8.87;;;1.80;99.90;;;;;;5075636;28;20472;-58
2022/01/24 06:44:10;;;;;;;11.30;8.73;;;1.80;99.90;;;;;;5075328;28;20475;-58
2022/01/24 06:46:37;;;;;;;12.20;10.80;;;1.80;99.90;;;;;;5075308;28;20536;-58
2022/01/24 06:49:08;;;;;;;11.30;9.43;;;1.90;99.90;;;;;;5074953;28;21042;-58
2022/01/24 06:51:36;;;;;;;12.27;9.70;;;1.80;99.90;;;;;;5075473;28;20583;-58
2022/01/24 06:54:03;;;;;;;11.27;8.93;;;2.00;99.90;;;;;;5074203;28;20444;-58
2022/01/24 06:56:31;;;;;;;13.73;9.20;;;2.10;99.90;;;;;;5075131;28;20509;-58
2022/01/24 06:58:58;;;;;;;13.93;11.13;;;2.20;99.90;;;;;;5075108;28;20589;-58
2022/01/24 07:01:26;;;;;;;12.33;9.83;;;2.20;99.90;;;;;;5074782;28;20502;-60
2022/01/24 07:03:53;;;;;;;12.53;9.33;;;2.30;99.90;;;;;;5074555;28;21028;-59
2022/01/24 07:06:20;;;;;;;12.10;9.33;;;2.20;99.90;;;;;;5074689;28;20969;-58
2022/01/24 07:08:48;;;;;;;11.27;9.00;;;2.30;99.90;;;;;;5075110;28;20459;-58
2022/01/24 07:11:15;;;;;;;12.27;9.93;;;2.30;99.90;;;;;;5074563;28;20978;-58
2022/01/24 07:13:42;;;;;;;12.33;9.97;;;2.40;99.90;;;;;;5074608;28;20796;-58
2022/01/24 07:16:09;;;;;;;14.50;10.80;;;2.40;99.90;;;;;;5075081;28;20802;-58
2022/01/24 07:21:23;;;;;;;13.73;11.00;;;2.50;99.90;;;;;;5074081;28;20972;-58
2022/01/24 07:23:50;;;;;;;11.57;9.30;;;2.40;99.90;;;;;;5074520;28;20519;-58
2022/01/24 07:26:17;;;;;;;14.13;9.33;;;2.50;99.90;;;;;;5074825;28;20463;-58
2022/01/24 07:28:45;;;;;;;13.40;10.67;;;2.50;99.90;;;;;;5074826;28;20440;-58
2022/01/24 07:31:12;;;;;;;13.63;11.10;;;2.60;99.90;;;;;;5074605;28;20963;-58
2022/01/24 07:33:41;;;;;;;12.30;9.80;;;;;;;;;;5074359;28;20443;-58
2022/01/24 07:36:09;;;;;;;12.53;10.10;;;2.70;99.90;;;;;;5074207;28;20531;-57
2022/01/24 07:38:36;;;;;;;12.80;10.00;;;2.70;99.90;;;;;;5073971;28;20540;-58
2022/01/24 07:41:03;;;;;;;15.50;10.70;;;2.70;99.90;;;;;;5073910;28;20467;-58
2022/01/24 07:43:30;;;;;;;13.40;10.57;;;2.80;99.90;;;;;;5073675;28;20993;-58
2022/01/24 07:45:57;;;;;;;12.80;11.40;;;2.70;99.90;;;;;;5073843;28;20424;-58
2022/01/24 07:48:25;;;;;;;12.70;10.17;;;2.90;99.90;;;;;;5073951;28;20444;-58
2022/01/24 07:50:53;;;;;;;15.43;10.50;;;3.00;99.90;;;;;;5073554;28;20498;-58
2022/01/24 07:53:22;;;;;;;13.93;11.80;;;3.00;99.90;;;;;;5073589;28;20463;-59
2022/01/24 07:55:50;;;;;;;10.93;9.90;;;3.00;99.90;;;;;;5074121;28;20456;-59
2022/01/24 07:58:17;;;;;;;11.67;9.67;;;3.00;99.90;;;;;;5074065;28;20448;-59
2022/01/24 08:00:44;;;;;;;11.20;10.00;;;3.10;99.90;;;;;;5073716;28;20500;-59
2022/01/24 08:03:11;;;;;;;10.53;9.43;;;3.10;99.90;;;;;;5073490;28;20998;-59
2022/01/24 08:05:39;;;;;;;12.43;10.77;;;3.20;99.90;;;;;;5072775;28;20947;-58
2022/01/24 08:08:08;;;;;;;12.13;10.20;;;3.20;99.90;;;;;;5073802;28;20452;-58
2022/01/24 08:10:36;;;;;;;16.20;11.10;;;3.20;99.90;;;;;;5073463;28;20863;-58
2022/01/24 08:13:03;;;;;;;15.40;11.07;;;3.30;99.90;;;;;;5073612;28;20791;-59
2022/01/24 08:15:30;;;;;;;16.53;10.43;;;3.50;99.90;;;;;;5073050;28;20927;-59
2022/01/24 08:17:57;;;;;;;15.90;9.77;;;3.60;99.90;;;;;;5073480;28;20535;-58
2022/01/24 08:20:27;;;;;;;13.27;11.10;;;3.70;99.90;;;;;;5073265;28;20929;-59
2022/01/24 08:22:55;;;;;;;15.63;11.23;;;3.60;99.90;;;;;;5073346;28;20448;-58
2022/01/24 08:25:23;;;;;;;15.73;10.53;;;3.60;99.90;;;;;;5072930;28;21068;-58
2022/01/24 08:27:50;;;;;;;17.57;10.90;;;3.60;99.90;;;;;;5073239;28;20581;-58
2022/01/24 08:30:20;;;;;;;13.03;11.63;;;3.60;99.90;;;;;;5073079;28;20859;-58
2022/01/24 08:32:48;;;;;;;15.30;11.77;;;3.70;99.90;;;;;;5072965;28;20447;-58
2022/01/24 08:35:19;;;;;;;19.83;12.63;;;3.70;99.90;;;;;;5073346;28;20476;-59
2022/01/24 08:37:46;;;;;;;14.80;11.20;;;3.80;99.90;;;;;;5073411;28;20460;-59
2022/01/24 08:40:21;;;;;;;20.53;12.03;;;3.70;99.90;;;;;;5072818;28;20931;-58
2022/01/24 08:42:57;;;;;;;16.10;11.60;;;3.70;99.90;;;;;;5072777;28;20958;-59
2022/01/24 08:45:50;;;;;;;24.20;12.37;;;3.80;99.90;;;;;;5072771;28;20519;-59
2022/01/24 08:48:20;;;;;;;14.70;11.10;;;3.80;99.90;;;;;;5073059;28;20459;-58
2022/01/24 08:50:48;;;;;;;15.23;12.63;;;3.90;99.90;;;;;;5072981;28;20476;-58
2022/01/24 08:53:15;;;;;;;13.80;10.50;;;4.10;99.90;;;;;;5072613;28;20455;-59
2022/01/24 08:55:42;;;;;;;14.73;11.30;;;4.00;99.90;;;;;;5072778;28;20441;-59
2022/01/24 08:58:15;;;;;;;12.83;11.40;;;4.10;99.90;;;;;;5073207;28;20444;-58
2022/01/24 09:00:42;;;;;;;13.80;11.57;;;;;;;;;;5072712;28;20480;-59
2022/01/24 09:03:10;;;;;;;14.73;11.50;;;4.40;99.90;;;;;;5072371;28;20939;-58
2022/01/24 09:05:37;;;;;;;14.50;12.30;;;4.30;99.90;;;;;;5072672;28;20957;-59
2022/01/24 09:08:05;;;;;;;16.30;12.47;;;4.40;99.90;;;;;;5073151;28;20444;-59
2022/01/24 09:10:33;;;;;;;15.37;12.03;;;4.60;99.90;;;;;;5073074;28;20444;-58
2022/01/24 09:13:00;;;;;;;12.00;10.80;;;4.60;99.90;;;;;;5072814;28;20527;-59
2022/01/24 09:15:29;;;;;;;16.80;11.80;;;4.70;99.90;;;;;;5072908;28;20436;-59
2022/01/24 09:17:56;;;;;;;13.50;10.37;;;4.80;99.90;;;;;;5072557;28;20445;-58
2022/01/24 09:20:23;;;;;;;14.10;12.00;;;5.00;99.90;;;;;;5073118;28;20482;-59
2022/01/24 09:22:51;;;;;;;13.47;11.50;;;4.90;99.90;;;;;;5072754;28;20447;-59
2022/01/24 09:25:22;;;;;;;12.87;11.43;;;4.70;99.90;;;;;;5072693;28;20480;-59
2022/01/24 09:27:50;;;;;;;11.30;10.10;;;4.50;99.90;;;;;;5072731;28;20515;-59
2022/01/24 09:30:19;;;;;;;12.27;10.70;;;4.40;99.90;;;;;;5072698;28;20447;-59
2022/01/24 09:32:48;;;;;;;14.73;10.93;;;4.30;99.90;;;;;;5072826;28;20809;-58
2022/01/24 09:35:16;;;;;;;12.97;10.83;;;4.30;99.90;;;;;;5072547;28;20539;-59
2022/01/24 09:37:45;;;;;;;12.43;10.90;;;4.40;99.90;;;;;;5072872;28;20448;-59
2022/01/24 09:40:14;;;;;;;9.57;8.67;;;4.50;99.90;;;;;;5072597;28;20500;-59
2022/01/24 09:42:43;;;;;;;13.27;10.17;;;4.60;99.90;;;;;;5072821;28;20464;-59
2022/01/24 09:45:11;;;;;;;13.07;10.40;;;4.70;99.90;;;;;;5072293;28;20571;-59
2022/01/24 09:47:39;;;;;;;12.57;9.20;;;4.60;99.90;;;;;;5072322;28;20449;-59
2022/01/24 09:50:10;;;;;;;11.73;10.07;;;4.70;99.90;;;;;;5072323;28;20451;-59
2022/01/24 09:52:40;;;;;;;15.57;11.67;;;4.70;99.90;;;;;;5072216;28;20479;-59
2022/01/24 09:55:09;;;;;;;12.03;9.93;;;4.80;99.90;;;;;;5073500;28;20417;-58
2022/01/24 09:57:36;;;;;;;16.83;12.40;;;4.90;99.90;;;;;;5072440;28;20448;-59
2022/01/24 10:00:06;;;;;;;16.23;10.90;;;4.90;99.90;;;;;;5072369;28;20447;-59
2022/01/24 10:02:33;;;;;;;15.10;11.50;;;5.00;99.90;;;;;;5072344;28;20465;-59
2022/01/24 10:05:16;;;;;;;11.23;10.10;;;4.90;99.90;;;;;;5072414;28;20480;-58
2022/01/24 10:07:50;;;;;;;11.23;10.07;;;4.80;99.90;;;;;;5072178;28;20918;-58
2022/01/24 10:10:30;;;;;;;11.43;9.50;;;4.80;99.90;;;;;;5072427;28;20436;-59
2022/01/24 10:16:29;;;;;;;9.90;8.47;;;5.00;99.90;;;;;;5072393;28;20399;-59
2022/01/24 10:19:10;;;;;;;14.90;10.37;;;5.20;99.90;;;;;;5072401;28;20452;-59
2022/01/24 10:21:40;;;;;;;12.17;10.50;;;5.20;99.90;;;;;;5072397;28;20488;-59
2022/01/24 10:24:08;;;;;;;13.47;10.60;;;5.20;99.90;;;;;;5072279;28;20836;-59
2022/01/24 10:26:35;;;;;;;14.70;11.57;;;5.20;99.90;;;;;;5072383;28;20448;-59
2022/01/24 10:29:09;;;;;;;14.67;11.63;;;5.30;99.90;;;;;;5074343;28;20451;-58
2022/01/24 10:31:46;;;;;;;13.00;10.23;;;5.30;99.90;;;;;;5075627;28;20551;-59
2022/01/24 10:34:18;;;;;;;13.70;12.30;;;5.40;99.90;;;;;;5075554;28;20431;-58
2022/01/24 10:36:47;;;;;;;11.70;9.53;;;5.40;99.90;;;;;;5075612;28;20439;-59
2022/01/24 10:39:27;;;;;;;12.10;10.50;;;5.40;99.90;;;;;;5075760;28;20793;-59
2022/01/24 10:42:30;;;;;;;10.73;9.73;;;5.50;99.90;;;;;;5075915;28;20468;-59
2022/01/24 10:45:00;;;;;;;16.80;10.87;;;5.70;99.90;;;;;;5075847;28;20469;-59
2022/01/24 10:47:30;;;;;;;10.40;9.10;;;5.80;99.90;;;;;;5075864;28;20966;-59
2022/01/24 10:50:01;;;;;;;12.13;11.00;;;6.00;99.90;;;;;;5074525;28;20453;-59
2022/01/24 10:52:31;;;;;;;10.50;8.90;;;6.40;99.90;;;;;;5075806;28;20559;-59
2022/01/24 10:55:16;;;;;;;14.03;8.73;;;7.00;99.90;;;;;;5076109;28;20527;-59
2022/01/24 10:57:44;;;;;;;9.47;8.37;;;8.50;99.90;;;;;;5075398;28;20528;-59
2022/01/24 11:00:14;;;;;;;8.43;7.60;;;9.10;99.90;;;;;;5075621;28;20459;-59
2022/01/24 11:02:44;;;;;;;8.20;7.40;;;9.80;99.90;;;;;;5075503;28;20924;-60
2022/01/24 11:05:13;;;;;;;9.80;6.40;;;10.90;99.70;;;;;;5075834;28;20484;-59
2022/01/24 11:07:52;;;;;;;9.30;8.30;;;12.10;98.40;;;;;;5075513;28;20454;-59
2022/01/24 11:10:20;;;;;;;8.03;6.03;;;12.80;96.00;;;;;;5075309;28;20436;-59
2022/01/24 11:12:48;;;;;;;7.03;6.43;;;13.50;93.40;;;;;;5075854;28;20459;-59
2022/01/24 11:15:15;;;;;;;6.80;5.03;;;12.90;92.90;;;;;;5075068;28;20498;-59
2022/01/24 11:17:44;;;;;;;5.67;5.17;;;11.80;92.20;;;;;;5075322;28;20484;-59
2022/01/24 11:20:15;;;;;;;5.87;5.17;;;11.70;92.90;;;;;;5074808;28;20539;-59
2022/01/24 11:22:45;;;;;;;5.20;4.70;;;12.20;92.20;;;;;;5074672;28;20484;-59
2022/01/24 11:25:15;;;;;;;5.53;5.13;;;12.20;91.70;;;;;;5075047;28;20486;-59
2022/01/24 11:27:44;;;;;;;6.00;5.23;;;12.60;91.60;;;;;;5074772;28;20428;-59
2022/01/24 11:30:14;;;;;;;7.07;6.47;;;12.90;90.60;;;;;;5074462;28;20531;-59
2022/01/24 11:32:48;;;;;;;9.40;8.60;;;12.60;91.20;;;;;;5074176;28;20467;-59
2022/01/24 11:35:30;;;;;;;8.03;7.23;;;13.10;91.40;;;;;;5074511;28;20439;-60
2022/01/24 11:37:58;;;;;;;8.70;7.80;;;13.50;91.40;;;;;;5074748;28;20775;-59
2022/01/24 11:40:27;;;;;;;9.00;8.10;;;13.00;91.40;;;;;;5074577;28;20451;-58
2022/01/24 11:42:55;;;;;;;8.30;7.50;;;12.80;92.30;;;;;;5074207;28;20814;-59
2022/01/24 11:45:44;;;;;;;8.13;7.33;;;13.50;92.40;;;;;;5074208;28;20486;-59
2022/01/24 11:48:17;;;;;;;8.70;7.50;;;13.80;90.00;;;;;;5074199;28;20961;-57
2022/01/24 11:50:56;;;;;;;11.13;8.30;;;13.70;90.40;;;;;;5073886;28;20967;-58
2022/01/24 11:53:27;;;;;;;11.23;8.10;;;13.70;90.30;;;;;;5074110;28;20777;-59
2022/01/24 11:55:56;;;;;;;8.50;7.70;;;13.50;90.40;;;;;;5074340;28;20429;-59
2022/01/24 11:58:28;;;;;;;8.97;8.17;;;13.20;89.50;;;;;;5073970;28;20904;-59
2022/01/24 12:00:57;;;;;;;8.43;7.50;;;13.20;90.00;;;;;;5073765;28;20464;-58
2022/01/24 12:03:27;;;;;;;8.43;7.07;;;12.40;99.90;;;;;;5074677;28;20563;-58
2022/01/24 12:05:57;;;;;;;8.60;7.70;;;12.30;91.00;;;;;;5073713;28;20485;-58
2022/01/24 12:08:33;;;;;;;8.50;7.63;;;12.20;91.90;;;;;;5074073;28;20455;-58
2022/01/24 12:11:16;;;;;;;7.00;6.27;;;11.70;91.40;;;;;;5073635;28;20686;-58
2022/01/24 12:13:45;;;;;;;7.23;6.53;;;11.50;92.10;;;;;;5073350;28;20931;-58
2022/01/24 12:16:13;;;;;;;6.80;5.90;;;11.40;92.30;;;;;;5073407;28;20444;-58
2022/01/24 12:18:49;;;;;;;6.77;6.07;;;11.10;92.90;;;;;;5073439;28;20449;-58
2022/01/24 12:21:21;;;;;;;7.03;6.33;;;10.70;93.40;;;;;;5073093;28;20484;-58
2022/01/24 12:23:51;;;;;;;7.80;7.00;;;10.50;93.90;;;;;;5073015;28;20527;-58
2022/01/24 12:26:26;;;;;;;7.77;7.07;;;10.60;93.90;;;;;;5073413;28;20506;-58
2022/01/24 12:28:58;;;;;;;7.00;6.30;;;10.60;94.20;;;;;;5073514;28;20536;-58
2022/01/24 12:31:29;;;;;;;8.13;6.53;;;10.90;93.70;;;;;;5073412;28;20487;-58
2022/01/24 12:34:12;;;;;;;7.30;6.30;;;10.40;94.00;;;;;;5073396;28;20801;-58
2022/01/24 12:37:02;;;;;;;9.10;5.83;;;10.60;94.60;;;;;;5073691;28;20500;-58
2022/01/24 12:39:50;;;;;;;7.43;5.93;;;10.30;93.60;;;;;;5073736;28;20786;-58
2022/01/24 12:42:32;;;;;;;7.03;5.80;;;10.20;94.30;;;;;;5073284;28;20982;-58
2022/01/24 12:47:44;;;;;;;6.77;6.03;;;10.50;94.40;;;;;;5073253;28;20424;-58
2022/01/24 12:50:11;;;;;;;8.67;5.83;;;10.70;94.60;;;;;;5072913;28;20470;-58
2022/01/24 12:52:40;;;;;;;7.90;5.90;;;10.80;95.00;;;;;;5072605;28;20549;-58
2022/01/24 12:55:09;;;;;;;13.80;6.30;;;11.00;94.10;;;;;;5073360;28;20452;-58
2022/01/24 12:57:42;;;;;;;5.50;4.90;;;10.80;94.40;;;;;;5073456;28;20453;-59
2022/01/24 13:00:12;;;;;;;5.67;5.07;;;10.40;94.30;;;;;;5073200;28;20526;-58
2022/01/24 13:02:39;;;;;;;4.87;4.33;;;9.80;94.80;;;;;;5073098;28;20496;-58
2022/01/24 13:05:09;;;;;;;9.40;6.00;;;9.50;96.10;;;;;;5073183;28;20481;-58
2022/01/24 13:07:37;;;;;;;8.63;5.13;;;9.60;96.00;;;;;;5073322;28;20444;-58
2022/01/24 13:10:14;;;;;;;5.70;5.20;;;9.60;95.70;;;;;;5073648;28;20452;-58
2022/01/24 13:12:44;;;;;;;5.63;4.80;;;9.90;95.60;;;;;;5072989;28;20468;-58
2022/01/24 13:15:28;;;;;;;5.33;4.93;;;9.90;96.10;;;;;;5073258;28;20433;-58
2022/01/24 13:23:27;;;;;;;4.80;4.40;;;9.60;96.00;;;;;;5068975;28;20436;-58
2022/01/24 13:25:55;;;;;;;5.90;4.80;;;9.50;95.90;;;;;;5073024;28;20996;-58
2022/01/24 13:28:24;;;;;;;5.77;5.20;;;10.00;95.80;;;;;;5072695;28;20981;-58
2022/01/24 13:30:58;;;;;;;5.17;4.77;;;10.40;95.00;;;;;;5073103;28;20471;-58
2022/01/24 13:33:26;;;;;;;6.53;4.70;;;10.40;94.80;;;;;;5072972;28;20473;-58
2022/01/24 13:35:55;;;;;;;4.50;4.10;;;10.70;94.40;;;;;;5072617;28;20444;-59
2022/01/24 13:38:25;;;;;;;5.30;4.53;;;10.50;94.60;;;;;;5072877;28;20445;-58
2022/01/24 13:40:54;;;;;;;5.30;4.80;;;10.50;95.50;;;;;;5072921;28;20561;-59
2022/01/24 13:43:34;;;;;;;5.20;4.70;;;10.50;94.40;;;;;;5072936;28;20448;-58
2022/01/24 13:46:04;;;;;;;4.90;4.37;;;9.80;95.50;;;;;;5072712;28;20475;-58
2022/01/24 13:48:45;;;;;;;7.60;4.93;;;9.80;96.20;;;;;;5072828;28;20528;-58
2022/01/24 13:51:14;;;;;;;5.87;4.30;;;9.90;95.40;;;;;;5072349;28;20836;-58
2022/01/24 13:53:43;;;;;;;4.60;4.20;;;10.50;95.10;;;;;;5072402;28;20556;-58
2022/01/24 13:56:28;;;;;;;5.53;5.03;;;10.50;94.50;;;;;;5072722;28;20440;-58
2022/01/24 13:59:09;;;;;;;8.10;5.10;;;9.80;95.50;;;;;;5072696;28;20455;-58
2022/01/24 14:01:39;;;;;;;11.43;4.63;;;9.20;96.30;;;;;;5072401;28;20467;-58
2022/01/24 14:04:08;;;;;;;4.60;4.23;;;9.00;97.20;;;;;;5074732;28;20452;-58
2022/01/24 14:06:36;;;;;;;7.30;5.13;;;8.50;97.10;;;;;;5076213;28;20970;-58
2022/01/24 14:09:09;;;;;;;5.00;4.60;;;8.50;98.00;;;;;;5076003;28;20451;-57
2022/01/24 14:11:45;;;;;;;10.30;5.03;;;8.40;98.10;;;;;;5076349;28;20468;-58
2022/01/24 14:14:17;;;;;;;5.70;5.00;;;8.30;98.60;;;;;;5076111;28;20478;-59
2022/01/24 14:16:55;;;;;;;5.00;4.50;;;8.20;98.50;;;;;;5076226;28;20424;-59
2022/01/24 14:19:33;;;;;;;4.90;4.50;;;8.10;98.90;;;;;;5076411;28;20443;-59
2022/01/24 14:22:09;;;;;;;4.90;4.47;;;8.00;99.40;;;;;;5075781;28;20486;-59
2022/01/24 14:24:44;;;;;;;5.00;4.60;;;8.10;99.70;;;;;;5076569;28;20844;-59
2022/01/24 14:27:11;;;;;;;7.30;4.80;;;8.10;99.80;;;;;;5076205;28;20482;-59